Veterans Administration, California
Current Conditions -  °F | °C
As of 1:51 PM on Monday 20 Oct 2014 (Local Time) from KSMO Reporting Station
Clear Clear  
Wind Chill: 74°   Ceiling: Unl
Heat Index: 74°   Visibility: 10mi
Dew Point: 60°   Wind: 9mph
Humidity: 62%   Direction: 210°SSW
Pressure: 29.9"   Gusts: NA
Location:  34.0636°N, 118.465°W
Report Text: KSMO 202051Z 21008KT 10SM CLR 23/16 A2990 RMK AO2 SLP122 T02330156 58020
Loading
Personal Weather Stations






























Interactive Weather Map
Tropical Storm Tracking
New forecast layout! Learn more

10-Day Weather Forecast

Advertisements
Track Severe Weather on mobile